createdAt,value
2018-05-29T00:02:08.723Z,98839.30
2018-05-29T00:04:37.079Z,98842.63
2018-05-29T00:07:05.432Z,98846.12
2018-05-29T00:09:33.773Z,98853.06
2018-05-29T00:12:02.276Z,98844.16
2018-05-29T00:14:32.149Z,98838.47
2018-05-29T00:17:00.529Z,98838.17
2018-05-29T00:19:28.865Z,98837.23
2018-05-29T00:21:57.913Z,98844.42
2018-05-29T00:24:27.107Z,98845.59
2018-05-29T00:26:55.626Z,98845.53
2018-05-29T00:29:23.958Z,98844.06
2018-05-29T00:31:52.322Z,98834.83
2018-05-29T00:34:20.728Z,98835.26
2018-05-29T00:36:49.097Z,98831.23
2018-05-29T00:39:19.338Z,98828.50
2018-05-29T00:41:47.751Z,98828.41
2018-05-29T00:44:16.096Z,98832.79
2018-05-29T00:46:44.446Z,98829.30
2018-05-29T00:49:12.937Z,98829.48
2018-05-29T00:51:42.369Z,98825.56
2018-05-29T00:54:10.700Z,98824.12
2018-05-29T00:56:39.297Z,98824.09
2018-05-29T00:59:07.677Z,98829.02
2018-05-29T01:01:36.538Z,98825.77
2018-05-29T01:04:05.154Z,98833.48
2018-05-29T01:06:33.719Z,98828.39
2018-05-29T01:09:02.124Z,98827.22
2018-05-29T01:11:30.491Z,98831.17
2018-05-29T01:13:59.193Z,98833.47
2018-05-29T01:16:28.345Z,98830.65
2018-05-29T01:18:57.489Z,98827.53
2018-05-29T01:21:25.883Z,98828.01
2018-05-29T01:23:54.237Z,98824.98
2018-05-29T01:26:22.648Z,98818.47
2018-05-29T01:28:51.541Z,98818.22
2018-05-29T01:31:19.915Z,98821.70
2018-05-29T01:33:48.255Z,98824.08
2018-05-29T01:36:17.383Z,98813.94
2018-05-29T01:38:45.731Z,98811.75
2018-05-29T01:41:14.078Z,98812.61
2018-05-29T01:43:42.463Z,98803.84
2018-05-29T01:46:10.841Z,98805.83
2018-05-29T01:48:39.213Z,98808.42
2018-05-29T01:51:07.997Z,98807.53
2018-05-29T01:53:36.999Z,98811.06
2018-05-29T01:56:05.428Z,98800.89
2018-05-29T01:58:34.476Z,98810.50
2018-05-29T02:01:03.879Z,98813.07
2018-05-29T02:03:32.276Z,98813.55
2018-05-29T02:06:00.632Z,98813.22
2018-05-29T02:08:29.005Z,98813.58
2018-05-29T02:10:57.615Z,98808.70
2018-05-29T02:13:25.981Z,98804.98
2018-05-29T02:15:55.166Z,98807.77
2018-05-29T02:18:23.608Z,98807.02
2018-05-29T02:20:51.913Z,98798.10
2018-05-29T02:23:21.036Z,98800.71
2018-05-29T02:25:49.374Z,98805.52
2018-05-29T02:28:18.143Z,98808.88
2018-05-29T02:30:46.523Z,98809.60
2018-05-29T02:33:15.173Z,98806.34
2018-05-29T02:35:43.627Z,98802.17
2018-05-29T02:38:11.989Z,98798.31
2018-05-29T02:40:40.728Z,98804.45
2018-05-29T02:43:09.198Z,98801.43
2018-05-29T02:45:37.679Z,98805.56
2018-05-29T02:48:06.057Z,98803.91
2018-05-29T02:50:34.750Z,98802.56
2018-05-29T02:53:04.222Z,98801.39
2018-05-29T02:55:32.571Z,98806.88
2018-05-29T02:58:01.525Z,98812.50
2018-05-29T03:00:30.119Z,98810.31
2018-05-29T03:02:58.488Z,98813.80
2018-05-29T03:05:26.956Z,98817.07
2018-05-29T03:07:55.362Z,98817.89
2018-05-29T03:10:24.030Z,98823.54
2018-05-29T03:12:52.418Z,98828.59
2018-05-29T03:15:20.789Z,98820.64
2018-05-29T03:17:49.976Z,98819.36
2018-05-29T03:20:18.346Z,98815.10
2018-05-29T03:22:46.715Z,98812.98
2018-05-29T03:25:15.067Z,98809.54
2018-05-29T03:27:44.052Z,98815.59
2018-05-29T03:30:12.959Z,98818.02
2018-05-29T03:32:41.344Z,98813.97
2018-05-29T03:35:09.723Z,98810.91
2018-05-29T03:37:38.654Z,98814.42
2018-05-29T03:40:07.024Z,98811.91
2018-05-29T03:42:36.102Z,98813.22
2018-05-29T03:45:04.441Z,98808.58
2018-05-29T03:47:33.199Z,98810.47
2018-05-29T03:50:01.557Z,98813.41
2018-05-29T03:52:29.963Z,98810.68
2018-05-29T03:54:58.307Z,98810.68
2018-05-29T03:57:26.909Z,98812.11
2018-05-29T03:59:55.262Z,98810.30
2018-05-29T04:02:23.623Z,98812.50
2018-05-29T04:04:52.894Z,98810.27
2018-05-29T04:07:22.141Z,98811.52
2018-05-29T04:09:51.342Z,98804.03
2018-05-29T04:12:19.755Z,98801.90
2018-05-29T04:14:49.008Z,98798.04
2018-05-29T04:17:18.093Z,98802.08
2018-05-29T04:19:46.829Z,98797.44
2018-05-29T04:22:15.198Z,98797.12
2018-05-29T04:24:43.769Z,98793.11
2018-05-29T04:27:12.168Z,98802.00
2018-05-29T04:29:41.445Z,98803.11
2018-05-29T04:32:10.328Z,98806.39
2018-05-29T04:34:40.595Z,98810.68
2018-05-29T04:37:09.753Z,98803.50
2018-05-29T04:39:38.111Z,98804.36
2018-05-29T04:42:07.040Z,98810.95
2018-05-29T04:44:35.441Z,98808.33
2018-05-29T04:47:03.924Z,98810.37
2018-05-29T04:49:32.272Z,98808.08
2018-05-29T04:52:00.654Z,98808.50
2018-05-29T04:54:29.844Z,98811.57
2018-05-29T04:56:58.210Z,98806.88
2018-05-29T04:59:28.004Z,98808.31
2018-05-29T05:01:56.730Z,98803.95
2018-05-29T05:04:25.110Z,98799.63
2018-05-29T05:06:53.528Z,98795.63
2018-05-29T05:09:21.883Z,98796.86
2018-05-29T05:11:50.322Z,98797.88
2018-05-29T05:14:18.699Z,98798.88
2018-05-29T05:16:47.077Z,98793.32
2018-05-29T05:19:15.661Z,98791.77
2018-05-29T05:21:44.049Z,98791.13
2018-05-29T05:24:13.303Z,98791.99
2018-05-29T05:26:41.977Z,98786.70
2018-05-29T05:29:10.329Z,98785.02
2018-05-29T05:31:38.679Z,98784.22
2018-05-29T05:34:07.059Z,98783.42
2018-05-29T05:36:35.404Z,98784.34
2018-05-29T05:39:03.777Z,98788.41
2018-05-29T05:41:32.137Z,98784.58
2018-05-29T05:44:00.545Z,98785.55
2018-05-29T05:46:28.901Z,98787.66
2018-05-29T05:48:57.294Z,98789.36
2018-05-29T05:51:25.923Z,98787.70
2018-05-29T05:53:54.305Z,98785.16
2018-05-29T05:56:22.643Z,98782.58
2018-05-29T05:58:51.025Z,98776.16
2018-05-29T06:01:19.400Z,98778.57
2018-05-29T06:03:47.844Z,98775.11
2018-05-29T06:06:16.638Z,98775.78
2018-05-29T06:08:45.006Z,98777.62
2018-05-29T06:11:14.481Z,98776.70
2018-05-29T06:13:43.528Z,98777.60
2018-05-29T06:16:12.204Z,98778.02
2018-05-29T06:18:40.805Z,98778.36
2018-05-29T06:21:09.141Z,98776.83
2018-05-29T06:23:38.633Z,98787.66
2018-05-29T06:26:07.814Z,98785.48
2018-05-29T06:28:36.172Z,98787.26
2018-05-29T06:31:04.513Z,98785.77
2018-05-29T06:33:33.103Z,98783.72
2018-05-29T06:36:01.481Z,98791.44
2018-05-29T06:38:29.832Z,98796.22
2018-05-29T06:40:58.932Z,98794.45
2018-05-29T06:43:27.296Z,98797.04
2018-05-29T06:45:55.639Z,98798.69
2018-05-29T06:48:24.008Z,98798.02
2018-05-29T06:50:52.391Z,98808.34
2018-05-29T06:53:20.909Z,98796.52
2018-05-29T06:55:49.923Z,98800.12
2018-05-29T06:58:18.355Z,98805.74
2018-05-29T07:00:46.693Z,98804.94
2018-05-29T07:03:15.483Z,98798.09
2018-05-29T07:05:43.831Z,98795.06
2018-05-29T07:08:12.209Z,98794.84
2018-05-29T07:10:40.555Z,98788.75
2018-05-29T07:13:08.971Z,98788.36
2018-05-29T07:15:37.399Z,98791.42
2018-05-29T07:18:06.556Z,98789.09
2018-05-29T07:20:36.077Z,98792.05
2018-05-29T07:23:04.444Z,98784.65
2018-05-29T07:25:32.808Z,98784.92
2018-05-29T07:28:01.422Z,98783.19
2018-05-29T07:30:30.082Z,98786.63
2018-05-29T07:32:59.805Z,98777.47
2018-05-29T07:35:28.401Z,98775.79
2018-05-29T07:37:56.779Z,98777.97
2018-05-29T07:40:25.611Z,98779.84
2018-05-29T07:42:54.123Z,98772.75
2018-05-29T07:45:22.468Z,98765.23
2018-05-29T07:47:51.202Z,98761.36
2018-05-29T07:50:20.388Z,98758.64
2018-05-29T07:52:48.752Z,98754.63
2018-05-29T07:55:17.093Z,98764.05
2018-05-29T07:57:45.474Z,98768.92
2018-05-29T08:00:13.863Z,98765.27
2018-05-29T08:02:42.242Z,98759.44
2018-05-29T08:05:10.586Z,98764.44
2018-05-29T08:07:39.717Z,98757.66
2018-05-29T08:10:08.112Z,98759.11
2018-05-29T08:12:37.284Z,98754.00
2018-05-29T08:15:05.751Z,98755.87
2018-05-29T08:17:35.092Z,98760.39
2018-05-29T08:20:03.828Z,98757.06
2018-05-29T08:22:32.615Z,98756.97
2018-05-29T08:25:01.730Z,98753.81
2018-05-29T08:27:30.072Z,98746.98
2018-05-29T08:29:58.437Z,98743.52
2018-05-29T08:32:26.791Z,98737.88
2018-05-29T08:34:56.103Z,98731.13
2018-05-29T08:37:24.833Z,98736.45
2018-05-29T08:39:53.212Z,98733.13
2018-05-29T08:42:21.569Z,98731.06
2018-05-29T08:44:49.973Z,98732.86
2018-05-29T08:47:18.318Z,98734.19
2018-05-29T08:49:46.738Z,98737.49
2018-05-29T08:52:15.173Z,98728.09
2018-05-29T08:54:43.543Z,98728.83
2018-05-29T08:57:11.894Z,98735.55
2018-05-29T08:59:40.285Z,98731.20
2018-05-29T09:02:09.405Z,98730.91
2018-05-29T09:04:37.775Z,98728.61
2018-05-29T09:07:06.118Z,98723.61
2018-05-29T09:09:34.493Z,98715.32
2018-05-29T09:12:03.254Z,98723.98
2018-05-29T09:14:32.625Z,98716.19
2018-05-29T09:17:00.980Z,98716.11
2018-05-29T09:19:29.354Z,98718.09
2018-05-29T09:21:57.688Z,98713.50
2018-05-29T09:24:26.058Z,98716.04
2018-05-29T09:26:55.376Z,98717.66
2018-05-29T09:29:24.367Z,98717.45
2018-05-29T09:31:53.500Z,98720.95
2018-05-29T09:34:21.861Z,98721.62
2018-05-29T09:36:50.526Z,98724.17
2018-05-29T09:39:19.952Z,98717.10
2018-05-29T09:41:48.310Z,98712.37
2018-05-29T09:44:16.988Z,98718.94
2018-05-29T09:46:46.283Z,98712.34
2018-05-29T09:49:14.646Z,98713.75
2018-05-29T09:51:42.993Z,98715.48
2018-05-29T09:54:11.361Z,98710.38
2018-05-29T09:56:39.724Z,98705.09
2018-05-29T09:59:08.947Z,98707.23
2018-05-29T10:01:37.331Z,98704.55
2018-05-29T10:04:06.386Z,98705.14
2018-05-29T10:06:34.736Z,98698.85
2018-05-29T10:09:03.144Z,98693.88
2018-05-29T10:11:31.495Z,98692.86
2018-05-29T10:14:00.332Z,98688.17
2018-05-29T10:16:30.418Z,98690.97
2018-05-29T10:18:59.209Z,98694.77
2018-05-29T10:21:27.654Z,98690.05
2018-05-29T10:23:56.057Z,98688.91
2018-05-29T10:26:24.401Z,98688.62
2018-05-29T10:28:53.424Z,98681.87
2018-05-29T10:31:21.821Z,98686.39
2018-05-29T10:33:50.206Z,98686.72
2018-05-29T10:36:18.551Z,98689.03
2018-05-29T10:38:47.447Z,98690.31
2018-05-29T10:41:15.777Z,98689.08
2018-05-29T10:43:44.138Z,98694.86
2018-05-29T10:46:12.492Z,98696.27
2018-05-29T10:48:41.173Z,98694.88
2018-05-29T10:51:10.068Z,98692.44
2018-05-29T10:53:38.439Z,98687.55
2018-05-29T10:56:07.034Z,98684.69
2018-05-29T10:58:35.396Z,98688.30
2018-05-29T11:01:03.998Z,98680.27
2018-05-29T11:03:32.479Z,98680.20
2018-05-29T11:06:00.813Z,98683.07
2018-05-29T11:08:29.447Z,98680.00
2018-05-29T11:10:57.769Z,98676.06
2018-05-29T11:13:26.140Z,98681.39
2018-05-29T11:15:55.704Z,98677.23
2018-05-29T11:18:24.083Z,98674.84
2018-05-29T11:20:52.408Z,98681.45
2018-05-29T11:23:20.765Z,98680.37
2018-05-29T11:25:49.769Z,98673.94
2018-05-29T11:28:18.115Z,98671.98
2018-05-29T11:30:46.485Z,98672.23
2018-05-29T11:33:14.825Z,98677.67
2018-05-29T11:35:43.197Z,98673.75
2018-05-29T11:38:12.158Z,98673.25
2018-05-29T11:40:41.659Z,98671.83
2018-05-29T11:43:10.016Z,98662.84
2018-05-29T11:45:38.369Z,98668.63
2018-05-29T11:48:07.084Z,98668.39
2018-05-29T11:50:36.377Z,98658.48
2018-05-29T11:53:04.721Z,98654.01
2018-05-29T11:55:33.100Z,98652.44
2018-05-29T11:58:02.362Z,98650.65
2018-05-29T12:00:30.790Z,98647.63
2018-05-29T12:03:00.828Z,98642.50
2018-05-29T12:05:29.645Z,98646.77
2018-05-29T12:07:58.024Z,98641.65
2018-05-29T12:10:26.405Z,98632.82
2018-05-29T12:12:54.789Z,98627.48
2018-05-29T12:15:23.167Z,98621.91
2018-05-29T12:17:51.531Z,98614.29
2018-05-29T12:20:20.915Z,98618.67
2018-05-29T12:22:49.540Z,98607.89
2018-05-29T12:25:18.019Z,98606.30
2018-05-29T12:27:46.366Z,98603.15
2018-05-29T12:30:15.131Z,98600.24
2018-05-29T12:32:43.467Z,98600.67
2018-05-29T12:35:11.829Z,98607.89
2018-05-29T12:37:41.009Z,98615.44
2018-05-29T12:40:09.373Z,98622.27
2018-05-29T12:42:38.186Z,98631.23
2018-05-29T12:45:06.548Z,98633.50
2018-05-29T12:47:34.897Z,98630.84
2018-05-29T12:50:03.840Z,98622.38
2018-05-29T12:52:32.184Z,98627.37
2018-05-29T12:55:00.564Z,98623.33
2018-05-29T12:57:28.926Z,98611.83
2018-05-29T12:59:57.333Z,98608.19
2018-05-29T13:02:25.683Z,98601.59
2018-05-29T13:04:54.090Z,98604.53
2018-05-29T13:07:22.420Z,98596.27
2018-05-29T13:09:50.794Z,98603.61
2018-05-29T13:12:19.135Z,98596.70
2018-05-29T13:14:48.857Z,98599.76
2018-05-29T13:17:17.345Z,98597.52
2018-05-29T13:19:45.717Z,98594.87
2018-05-29T13:22:14.086Z,98593.55
2018-05-29T13:24:42.458Z,98594.62
2018-05-29T13:27:11.000Z,98583.89
2018-05-29T13:29:39.572Z,98580.22
2018-05-29T13:32:07.913Z,98584.29
2018-05-29T13:34:36.281Z,98581.58
2018-05-29T13:37:05.062Z,98579.42
2018-05-29T13:39:34.772Z,98570.05
2018-05-29T13:42:03.110Z,98566.88
2018-05-29T13:44:31.498Z,98563.02
2018-05-29T13:46:59.827Z,98557.73
2018-05-29T13:49:28.202Z,98554.78
2018-05-29T13:51:56.565Z,98557.21
2018-05-29T13:54:25.009Z,98548.73
2018-05-29T13:56:53.354Z,98546.83
2018-05-29T13:59:21.826Z,98545.91
2018-05-29T14:01:50.394Z,98549.81
2018-05-29T14:04:18.761Z,98546.34
2018-05-29T14:06:47.114Z,98543.02
2018-05-29T14:09:15.470Z,98542.92
2018-05-29T14:11:43.813Z,98537.92
2018-05-29T14:14:12.727Z,98540.06
2018-05-29T14:16:41.820Z,98529.29
2018-05-29T14:19:10.184Z,98521.11
2018-05-29T14:21:38.758Z,98517.14
2018-05-29T14:24:07.129Z,98509.17
2018-05-29T14:26:37.025Z,98499.07
2018-05-29T14:29:05.405Z,98501.50
2018-05-29T14:31:33.753Z,98504.97
2018-05-29T14:34:02.098Z,98504.56
2018-05-29T14:36:30.473Z,98502.62
2018-05-29T14:38:58.854Z,98516.97
2018-05-29T14:41:27.228Z,98524.36
2018-05-29T14:43:56.323Z,98530.83
2018-05-29T14:46:24.637Z,98528.69
2018-05-29T14:48:52.985Z,98532.06
2018-05-29T14:51:21.613Z,98524.33
2018-05-29T14:53:49.965Z,98521.37
2018-05-29T14:56:18.704Z,98531.21
2018-05-29T14:58:47.124Z,98531.20
2018-05-29T15:01:15.466Z,98530.66
2018-05-29T15:03:43.820Z,98525.03
2018-05-29T15:06:12.193Z,98532.45
2018-05-29T15:08:40.538Z,98547.89
2018-05-29T15:11:08.911Z,98552.20
2018-05-29T15:13:37.259Z,98555.87
2018-05-29T15:16:05.634Z,98545.27
2018-05-29T15:18:34.011Z,98545.74
2018-05-29T15:21:03.389Z,98542.21
2018-05-29T15:23:31.750Z,98557.77
2018-05-29T15:26:00.913Z,98561.94
2018-05-29T15:28:30.136Z,98570.41
2018-05-29T15:30:58.547Z,98570.77
2018-05-29T15:33:27.318Z,98576.55
2018-05-29T15:35:55.680Z,98578.55
2018-05-29T15:38:24.014Z,98572.72
2018-05-29T15:40:53.421Z,98561.73
2018-05-29T15:43:22.670Z,98554.96
2018-05-29T15:45:51.062Z,98558.05
2018-05-29T15:48:19.400Z,98554.88
2018-05-29T15:50:48.060Z,98567.63
2018-05-29T15:53:16.831Z,98560.45
2018-05-29T15:55:45.424Z,98580.10
2018-05-29T15:58:14.020Z,98587.41
2018-05-29T16:00:42.806Z,98592.79
2018-05-29T16:03:11.169Z,98593.27
2018-05-29T16:05:39.857Z,98593.80
2018-05-29T16:08:08.447Z,98591.66
2018-05-29T16:10:37.139Z,98589.66
2018-05-29T16:13:05.720Z,98581.36
2018-05-29T16:15:34.077Z,98577.89
2018-05-29T16:18:03.575Z,98573.36
2018-05-29T16:20:32.015Z,98570.11
2018-05-29T16:23:00.357Z,98580.77
2018-05-29T16:25:29.048Z,98577.29
2018-05-29T16:27:57.471Z,98587.78
2018-05-29T16:30:25.843Z,98607.81
2018-05-29T16:32:54.186Z,98598.77
2018-05-29T16:35:22.558Z,98607.22
2018-05-29T16:37:51.234Z,98612.47
2018-05-29T16:40:20.247Z,98604.88
2018-05-29T16:42:48.931Z,98620.81
2018-05-29T16:45:17.303Z,98644.76
2018-05-29T16:47:45.633Z,98683.52
2018-05-29T16:50:14.003Z,98677.06
2018-05-29T16:52:42.346Z,98691.17
2018-05-29T16:55:10.712Z,98690.73
2018-05-29T16:57:39.085Z,98701.30
2018-05-29T17:00:07.458Z,98711.41
2018-05-29T17:02:35.785Z,98715.31
2018-05-29T17:05:05.274Z,98713.51
2018-05-29T17:07:33.943Z,98722.05
2018-05-29T17:10:02.609Z,98711.50
2018-05-29T17:12:32.100Z,98701.08
2018-05-29T17:15:00.673Z,98682.22
2018-05-29T17:17:29.009Z,98689.31
2018-05-29T17:19:57.377Z,98730.84
2018-05-29T17:22:25.718Z,98723.68
2018-05-29T17:24:54.337Z,98720.22
2018-05-29T17:27:22.660Z,98724.77
2018-05-29T17:29:51.278Z,98713.27
2018-05-29T17:32:19.677Z,98701.25
2018-05-29T17:34:48.057Z,98693.04
2018-05-29T17:37:16.444Z,98696.81
2018-05-29T17:39:44.782Z,98679.71
2018-05-29T17:42:13.136Z,98666.34
2018-05-29T17:44:41.467Z,98671.55
2018-05-29T17:47:10.150Z,98661.39
2018-05-29T17:49:39.383Z,98656.88
2018-05-29T17:52:07.730Z,98648.18
2018-05-29T17:54:36.294Z,98664.81
2018-05-29T17:57:05.089Z,98667.50
2018-05-29T17:59:33.463Z,98664.70
2018-05-29T18:02:01.862Z,98663.38
2018-05-29T18:04:30.243Z,98666.36
2018-05-29T18:06:58.641Z,98672.42
2018-05-29T18:09:27.017Z,98669.30
2018-05-29T18:11:55.446Z,98670.94
2018-05-29T18:14:23.854Z,98681.72
2018-05-29T18:16:52.207Z,98674.83
2018-05-29T18:19:20.534Z,98676.63
2018-05-29T18:21:48.888Z,98666.25
2018-05-29T18:24:17.256Z,98657.36
2018-05-29T18:26:45.690Z,98654.48
2018-05-29T18:29:14.037Z,98658.06
2018-05-29T18:31:42.455Z,98661.64
2018-05-29T18:34:11.241Z,98678.12
2018-05-29T18:36:39.602Z,98683.95
2018-05-29T18:39:09.191Z,98675.91
2018-05-29T18:41:37.541Z,98669.22
2018-05-29T18:44:05.882Z,98678.24
2018-05-29T18:46:35.669Z,98674.63
2018-05-29T18:49:04.078Z,98674.33
2018-05-29T18:51:33.318Z,98672.18
2018-05-29T18:54:01.681Z,98669.65
2018-05-29T18:56:30.043Z,98663.30
2018-05-29T18:58:58.568Z,98661.79
2018-05-29T19:01:26.942Z,98660.74
2018-05-29T19:03:55.272Z,98659.54
2018-05-29T19:06:23.640Z,98663.16
2018-05-29T19:08:51.961Z,98659.56
2018-05-29T19:11:20.591Z,98658.66
2018-05-29T19:13:48.930Z,98662.72
2018-05-29T19:16:17.300Z,98659.84
2018-05-29T19:18:45.635Z,98657.77
2018-05-29T19:21:13.981Z,98658.56
2018-05-29T19:23:43.978Z,98662.52
2018-05-29T19:26:12.321Z,98685.27
2018-05-29T19:28:40.671Z,98690.74
2018-05-29T19:31:09.028Z,98697.72
2018-05-29T19:33:38.093Z,98699.11
2018-05-29T19:36:06.451Z,98701.53
2018-05-29T19:38:34.820Z,98698.49
2018-05-29T19:41:03.180Z,98691.46
2018-05-29T19:43:31.525Z,98689.81
2018-05-29T19:46:00.710Z,98686.31
2018-05-29T19:48:29.318Z,98687.86
2018-05-29T19:50:58.432Z,98693.16
2018-05-29T19:53:26.765Z,98705.97
2018-05-29T19:55:55.130Z,98706.02
2018-05-29T19:58:23.492Z,98709.69
2018-05-29T20:00:51.836Z,98706.30
2018-05-29T20:03:20.177Z,98694.39
2018-05-29T20:05:48.779Z,98695.79
2018-05-29T20:08:17.105Z,98699.50
2018-05-29T20:10:46.261Z,98695.29
2018-05-29T20:13:14.631Z,98697.91
2018-05-29T20:15:42.993Z,98691.04
2018-05-29T20:18:11.325Z,98687.53
2018-05-29T20:20:39.727Z,98679.28
2018-05-29T20:23:08.077Z,98675.11
2018-05-29T20:25:36.468Z,98685.52
2018-05-29T20:28:05.724Z,98681.66
2018-05-29T20:30:34.096Z,98677.92
2018-05-29T20:33:02.680Z,98673.48
2018-05-29T20:35:31.014Z,98672.39
2018-05-29T20:37:59.633Z,98667.49
2018-05-29T20:40:27.969Z,98659.45
2018-05-29T20:42:57.146Z,98664.33
2018-05-29T20:45:26.603Z,98659.97
2018-05-29T20:47:55.253Z,98657.97
2018-05-29T20:50:23.999Z,98668.88
2018-05-29T20:52:52.413Z,98675.07
2018-05-29T20:55:20.803Z,98684.15
2018-05-29T20:57:49.208Z,98687.03
2018-05-29T21:00:17.594Z,98689.85
2018-05-29T21:02:45.954Z,98697.84
2018-05-29T21:05:14.299Z,98698.67
2018-05-29T21:07:42.669Z,98698.73
2018-05-29T21:10:11.283Z,98701.42
2018-05-29T21:12:39.691Z,98694.24
2018-05-29T21:15:08.031Z,98703.13
2018-05-29T21:17:36.449Z,98702.73
2018-05-29T21:20:04.786Z,98711.11
2018-05-29T21:22:33.212Z,98712.97
2018-05-29T21:25:01.562Z,98716.58
2018-05-29T21:27:29.935Z,98715.16
2018-05-29T21:29:58.279Z,98722.64
2018-05-29T21:32:27.594Z,98729.45
2018-05-29T21:34:57.062Z,98733.39
2018-05-29T21:37:25.493Z,98734.29
2018-05-29T21:39:53.836Z,98736.48
2018-05-29T21:42:22.949Z,98737.66
2018-05-29T21:44:52.157Z,98732.61
2018-05-29T21:47:21.457Z,98734.81
2018-05-29T21:49:49.808Z,98728.23
2018-05-29T21:52:18.179Z,98727.25
2018-05-29T21:54:46.531Z,98727.35
2018-05-29T21:57:18.065Z,98730.70
2018-05-29T21:59:46.407Z,98724.31
2018-05-29T22:02:14.757Z,98726.43
2018-05-29T22:04:43.101Z,98724.91
2018-05-29T22:07:11.516Z,98724.64
2018-05-29T22:09:40.299Z,98721.13
2018-05-29T22:12:08.677Z,98729.59
2018-05-29T22:14:37.058Z,98736.14
2018-05-29T22:17:05.425Z,98734.55
2018-05-29T22:19:34.093Z,98727.92
2018-05-29T22:22:02.482Z,98728.44
2018-05-29T22:24:31.076Z,98733.55
2018-05-29T22:27:00.277Z,98728.85
2018-05-29T22:29:28.862Z,98735.48
2018-05-29T22:31:57.276Z,98737.41
2018-05-29T22:34:26.528Z,98741.53
2018-05-29T22:36:54.921Z,98742.70
2018-05-29T22:39:23.307Z,98745.89
2018-05-29T22:41:51.676Z,98749.25
2018-05-29T22:44:20.065Z,98752.13
2018-05-29T22:46:48.495Z,98757.75
2018-05-29T22:49:16.880Z,98750.44
2018-05-29T22:51:45.525Z,98749.34
2018-05-29T22:54:13.872Z,98749.52
2018-05-29T22:56:43.888Z,98752.38
2018-05-29T22:59:13.047Z,98752.86
2018-05-29T23:01:41.413Z,98756.48
2018-05-29T23:04:10.489Z,98758.51
2018-05-29T23:06:38.852Z,98753.98
2018-05-29T23:09:07.189Z,98745.51
2018-05-29T23:11:35.579Z,98753.03
2018-05-29T23:14:04.244Z,98753.95
2018-05-29T23:16:33.476Z,98754.10
2018-05-29T23:19:01.872Z,98755.08
2018-05-29T23:21:30.303Z,98764.20
2018-05-29T23:23:58.687Z,98766.11
2018-05-29T23:26:28.576Z,98765.83
2018-05-29T23:28:56.927Z,98770.95
2018-05-29T23:31:25.295Z,98772.39
2018-05-29T23:33:53.686Z,98770.58
2018-05-29T23:36:22.059Z,98772.80
2018-05-29T23:38:50.410Z,98775.84
2018-05-29T23:41:18.752Z,98775.34
2018-05-29T23:43:47.154Z,98782.19
2018-05-29T23:46:15.549Z,98779.05
2018-05-29T23:48:44.293Z,98779.89
2018-05-29T23:51:12.625Z,98781.73
2018-05-29T23:53:40.977Z,98784.86
2018-05-29T23:56:09.354Z,98792.48
2018-05-29T23:58:38.774Z,98798.50
